Time;durP1;ratioP1;P1;durP2;ratioP2;P2;SDS_P1;SDS_P2;PMS_P1;PMS_P2;Temp;Humidity;BMP_temperature;BMP_pressure;BME280_temperature;BME280_humidity;BME280_pressure;Samples;Min_cycle;Max_cycle;Signal;HPM_P1;HPM_P2
2021/01/07 00:01:27;;;;;;;10.10;6.28;;;3.00;99.90;;;;;;5072771;28;20172;-69
2021/01/07 00:03:53;;;;;;;13.80;8.10;;;3.20;99.90;;;;;;5072767;28;20574;-69
2021/01/07 00:06:19;;;;;;;10.97;6.90;;;3.00;99.90;;;;;;5072808;28;20172;-68
2021/01/07 00:08:44;;;;;;;18.37;8.60;;;3.30;99.90;;;;;;5072907;28;20180;-69
2021/01/07 00:11:11;;;;;;;18.27;7.80;;;3.00;92.90;;;;;;5072997;28;20652;-68
2021/01/07 00:13:37;;;;;;;12.65;7.75;;;3.00;99.90;;;;;;5072734;28;20182;-69
2021/01/07 00:16:03;;;;;;;14.45;7.85;;;3.00;99.90;;;;;;5072682;28;20637;-68
2021/01/07 00:18:29;;;;;;;12.93;8.07;;;2.80;99.90;;;;;;5072707;28;20207;-68
2021/01/07 00:20:54;;;;;;;19.27;7.83;;;3.10;99.90;;;;;;5075844;28;20455;-68
2021/01/07 00:23:20;;;;;;;17.00;7.60;;;3.10;99.90;;;;;;5076884;28;20179;-68
2021/01/07 00:25:51;;;;;;;11.30;7.87;;;3.00;99.90;;;;;;5076971;28;20164;-69
2021/01/07 00:28:18;;;;;;;17.52;8.32;;;3.30;99.90;;;;;;5076733;28;20406;-69
2021/01/07 00:30:45;;;;;;;13.30;8.07;;;3.40;99.90;;;;;;5075117;28;20564;-69
2021/01/07 00:33:14;;;;;;;14.23;8.55;;;3.20;92.90;;;;;;5076355;28;20285;-68
2021/01/07 00:35:40;;;;;;;15.95;9.27;;;3.00;99.90;;;;;;5076318;28;20172;-69
2021/01/07 00:38:06;;;;;;;12.37;7.70;;;2.90;99.90;;;;;;5076168;28;20206;-69
2021/01/07 00:40:33;;;;;;;14.63;8.10;;;3.00;99.90;;;;;;5076135;28;20272;-68
2021/01/07 00:42:59;;;;;;;11.82;7.60;;;3.00;99.90;;;;;;5076340;28;20707;-69
2021/01/07 00:45:25;;;;;;;11.27;7.57;;;3.30;99.90;;;;;;5076109;28;20203;-69
2021/01/07 00:47:50;;;;;;;11.23;8.20;;;3.00;99.90;;;;;;5075990;28;20430;-69
2021/01/07 00:50:16;;;;;;;14.60;7.87;;;3.20;99.90;;;;;;5075987;28;20432;-68
2021/01/07 00:52:42;;;;;;;13.37;8.47;;;3.50;55.10;;;;;;5075978;28;20172;-68
2021/01/07 00:55:09;;;;;;;16.40;8.18;;;3.20;36.80;;;;;;5075903;28;20182;-69
2021/01/07 00:57:35;;;;;;;10.13;6.70;;;3.10;92.00;;;;;;5076160;28;20700;-69
2021/01/07 01:00:05;;;;;;;10.73;6.72;;;2.90;99.90;;;;;;5075830;28;20253;-69
2021/01/07 01:02:30;;;;;;;15.40;7.80;;;2.90;99.90;;;;;;5075974;28;20554;-69
2021/01/07 01:04:56;;;;;;;11.27;7.20;;;3.00;99.90;;;;;;5076026;28;20164;-68
2021/01/07 01:07:21;;;;;;;13.80;6.73;;;3.00;97.70;;;;;;5076063;28;20200;-69
2021/01/07 01:09:47;;;;;;;10.90;7.13;;;2.90;99.90;;;;;;5075644;28;20271;-69
2021/01/07 01:12:12;;;;;;;14.03;7.97;;;2.80;99.90;;;;;;5075909;28;20321;-68
2021/01/07 01:14:38;;;;;;;12.50;7.10;;;2.90;99.90;;;;;;5075886;28;20200;-69
2021/01/07 01:17:04;;;;;;;10.37;7.20;;;2.90;99.90;;;;;;5075436;28;20225;-68
2021/01/07 01:19:31;;;;;;;13.40;7.32;;;3.00;99.90;;;;;;5075386;28;20245;-68
2021/01/07 01:21:57;;;;;;;12.40;7.03;;;3.20;99.90;;;;;;5075700;28;20180;-69
2021/01/07 01:24:22;;;;;;;16.60;8.83;;;3.30;99.90;;;;;;5075402;28;20702;-68
2021/01/07 01:26:56;;;;;;;9.53;7.70;;;3.50;71.00;;;;;;5075353;28;20702;-69
2021/01/07 01:29:22;;;;;;;12.68;8.15;;;3.30;31.90;;;;;;5075489;28;20308;-69
2021/01/07 01:31:48;;;;;;;13.82;8.05;;;3.30;99.90;;;;;;5075188;28;20178;-69
2021/01/07 01:34:15;;;;;;;12.70;7.33;;;3.00;99.90;;;;;;5075190;28;20164;-68
2021/01/07 01:36:40;;;;;;;15.10;8.38;;;3.30;99.90;;;;;;5075349;28;20233;-68
2021/01/07 01:39:06;;;;;;;16.60;9.37;;;3.10;94.60;;;;;;5075160;28;20184;-68
2021/01/07 01:41:38;;;;;;;12.43;8.40;;;3.20;99.90;;;;;;5075660;28;20541;-68
2021/01/07 01:44:05;;;;;;;12.85;8.98;;;3.40;99.90;;;;;;5075353;28;20152;-67
2021/01/07 01:46:30;;;;;;;16.08;9.35;;;3.40;99.90;;;;;;5074978;28;20164;-68
2021/01/07 01:48:56;;;;;;;14.80;9.53;;;3.50;99.90;;;;;;5074875;28;20218;-68
2021/01/07 01:51:23;;;;;;;19.80;11.07;;;3.50;99.90;;;;;;5074905;28;20217;-68
2021/01/07 01:53:48;;;;;;;15.60;11.20;;;3.50;99.90;;;;;;5074877;28;20180;-68
2021/01/07 01:56:15;;;;;;;24.10;10.20;;;3.50;99.90;;;;;;5074812;28;20173;-68
2021/01/07 01:58:41;;;;;;;29.25;11.85;;;3.40;99.90;;;;;;5074657;28;20278;-67
2021/01/07 02:01:07;;;;;;;22.80;11.52;;;3.50;99.90;;;;;;5075008;28;20164;-68
2021/01/07 02:03:32;;;;;;;19.50;11.70;;;3.60;99.90;;;;;;5074700;28;20166;-68
2021/01/07 02:06:01;;;;;;;17.80;10.00;;;3.40;99.90;;;;;;5074621;28;20174;-68
2021/01/07 02:08:29;;;;;;;22.05;10.85;;;3.50;99.90;;;;;;5074472;28;20172;-68
2021/01/07 02:10:56;;;;;;;19.60;10.80;;;3.50;99.90;;;;;;5074805;28;20216;-68
2021/01/07 02:13:22;;;;;;;17.45;10.80;;;3.20;99.90;;;;;;5074500;28;20169;-68
2021/01/07 02:15:47;;;;;;;22.23;10.40;;;3.40;99.90;;;;;;5074446;28;20191;-68
2021/01/07 02:18:13;;;;;;;18.70;11.43;;;3.50;99.90;;;;;;5074336;28;20277;-68
2021/01/07 02:20:39;;;;;;;20.70;10.87;;;3.40;99.90;;;;;;5074275;28;20279;-68
2021/01/07 02:23:05;;;;;;;18.83;11.57;;;3.60;99.90;;;;;;5074330;28;20218;-68
2021/01/07 02:25:30;;;;;;;22.27;12.60;;;3.60;99.90;;;;;;5074754;28;20634;-68
2021/01/07 02:27:56;;;;;;;19.60;11.40;;;3.50;99.90;;;;;;5074210;28;20183;-68
2021/01/07 02:30:22;;;;;;;21.53;11.70;;;3.30;99.90;;;;;;5074377;28;20257;-67
2021/01/07 02:32:48;;;;;;;16.50;10.33;;;3.50;99.90;;;;;;5074983;28;20196;-69
2021/01/07 02:35:14;;;;;;;16.35;11.20;;;3.40;99.90;;;;;;5074830;28;20495;-68
2021/01/07 02:37:43;;;;;;;17.07;10.60;;;3.60;99.90;;;;;;5074800;28;20231;-69
2021/01/07 02:40:09;;;;;;;21.42;11.80;;;3.70;99.90;;;;;;5073835;28;20401;-68
2021/01/07 02:42:35;;;;;;;22.90;13.43;;;3.50;99.90;;;;;;5073429;28;20633;-68
2021/01/07 02:45:01;;;;;;;17.23;12.90;;;3.50;99.90;;;;;;5075380;28;20171;-68
2021/01/07 02:47:26;;;;;;;22.60;14.50;;;3.40;99.90;;;;;;5075980;28;20410;-69
2021/01/07 02:49:52;;;;;;;21.77;12.13;;;3.30;99.90;;;;;;5074574;28;20430;-69
2021/01/07 02:52:17;;;;;;;27.63;13.23;;;3.30;99.90;;;;;;5073961;28;20210;-69
2021/01/07 02:54:43;;;;;;;22.63;13.03;;;3.30;99.90;;;;;;5073697;28;20251;-69
2021/01/07 02:57:09;;;;;;;19.90;13.03;;;3.40;99.90;;;;;;5073537;28;20192;-68
2021/01/07 02:59:34;;;;;;;23.50;13.83;;;3.40;99.90;;;;;;5073528;28;20184;-69
2021/01/07 03:02:00;;;;;;;21.33;14.17;;;3.50;99.90;;;;;;5073516;28;20217;-69
2021/01/07 03:04:25;;;;;;;21.47;13.80;;;3.40;99.90;;;;;;5073667;28;20172;-69
2021/01/07 03:06:51;;;;;;;19.13;13.47;;;3.20;99.90;;;;;;5073680;28;20174;-69
2021/01/07 03:09:17;;;;;;;21.77;14.50;;;3.20;99.90;;;;;;5073373;28;20196;-67
2021/01/07 03:11:42;;;;;;;22.33;13.53;;;3.40;99.90;;;;;;5073396;28;20196;-69
2021/01/07 03:14:08;;;;;;;25.00;13.57;;;3.50;99.90;;;;;;5073321;28;20190;-69
2021/01/07 03:16:33;;;;;;;22.30;13.77;;;3.50;99.90;;;;;;5073245;28;20168;-69
2021/01/07 03:18:59;;;;;;;23.00;14.40;;;3.60;99.90;;;;;;5073183;28;20263;-69
2021/01/07 03:21:25;;;;;;;23.77;14.52;;;3.80;99.90;;;;;;5073475;28;20223;-69
2021/01/07 03:23:50;;;;;;;32.87;15.53;;;3.70;99.90;;;;;;5073130;28;20172;-69
2021/01/07 03:26:16;;;;;;;26.40;14.63;;;3.80;99.90;;;;;;5073287;28;20218;-69
2021/01/07 03:28:42;;;;;;;25.63;14.93;;;3.90;99.90;;;;;;5073123;28;20172;-69
2021/01/07 03:31:09;;;;;;;23.25;14.20;;;3.70;99.90;;;;;;5073061;28;20171;-69
2021/01/07 03:33:34;;;;;;;26.60;17.13;;;3.80;99.90;;;;;;5073070;28;20724;-69
2021/01/07 03:36:00;;;;;;;28.73;15.40;;;3.90;99.90;;;;;;5073075;28;20164;-69
2021/01/07 03:38:26;;;;;;;28.80;16.97;;;3.50;99.90;;;;;;5072945;28;20660;-69
2021/01/07 03:40:52;;;;;;;24.85;15.40;;;3.70;99.90;;;;;;5073383;28;20175;-69
2021/01/07 03:43:17;;;;;;;23.97;15.30;;;3.50;99.90;;;;;;5072959;28;20183;-69
2021/01/07 03:45:43;;;;;;;20.17;13.37;;;3.40;99.90;;;;;;5072921;28;20183;-69
2021/01/07 03:48:09;;;;;;;19.83;12.40;;;3.50;99.90;;;;;;5072819;28;20433;-68
2021/01/07 03:50:34;;;;;;;22.30;13.80;;;3.60;99.90;;;;;;5072970;28;20196;-69
2021/01/07 03:53:00;;;;;;;24.00;13.30;;;3.60;99.90;;;;;;5073160;28;20171;-69
2021/01/07 03:55:25;;;;;;;21.30;13.10;;;3.30;99.90;;;;;;5071834;28;20222;-69
2021/01/07 03:57:51;;;;;;;25.70;14.03;;;3.40;99.90;;;;;;5072956;28;20199;-69
2021/01/07 04:00:17;;;;;;;23.50;12.20;;;3.50;99.90;;;;;;5072981;28;20188;-69
2021/01/07 04:02:42;;;;;;;29.23;15.10;;;3.70;99.90;;;;;;5072989;28;20179;-69
2021/01/07 04:05:09;;;;;;;24.97;14.47;;;3.50;99.90;;;;;;5072685;28;20884;-69
2021/01/07 04:07:37;;;;;;;24.85;14.18;;;3.00;99.90;;;;;;5072587;28;20172;-68
2021/01/07 04:10:07;;;;;;;22.75;13.52;;;3.20;99.90;;;;;;5072451;28;20187;-69
2021/01/07 04:12:34;;;;;;;24.15;14.65;;;3.50;99.90;;;;;;5072803;28;20175;-69
2021/01/07 04:15:00;;;;;;;24.23;13.80;;;3.60;99.90;;;;;;5072663;28;20233;-69
2021/01/07 04:17:26;;;;;;;24.60;14.10;;;3.60;99.90;;;;;;5072598;28;20257;-68
2021/01/07 04:19:52;;;;;;;23.23;14.60;;;3.20;99.90;;;;;;5072775;28;20191;-69
2021/01/07 04:22:17;;;;;;;24.80;14.60;;;3.00;99.90;;;;;;5072824;28;20160;-69
2021/01/07 04:24:43;;;;;;;29.97;15.20;;;3.10;99.90;;;;;;5072488;28;20160;-68
2021/01/07 04:27:08;;;;;;;29.70;16.10;;;3.20;99.90;;;;;;5072517;28;20637;-69
2021/01/07 04:29:34;;;;;;;28.60;14.80;;;3.20;99.90;;;;;;5072379;28;20191;-69
2021/01/07 04:31:59;;;;;;;21.43;13.37;;;3.30;99.90;;;;;;5072397;28;20168;-69
2021/01/07 04:34:25;;;;;;;23.03;13.70;;;3.30;99.90;;;;;;5072334;28;20264;-69
2021/01/07 04:36:50;;;;;;;26.27;14.90;;;3.10;99.90;;;;;;5072798;28;20172;-69
2021/01/07 04:39:17;;;;;;;22.47;14.33;;;3.00;99.90;;;;;;5072534;28;20191;-67
2021/01/07 04:41:43;;;;;;;30.67;15.57;;;2.70;99.90;;;;;;5072418;28;20167;-69
2021/01/07 04:44:09;;;;;;;29.50;14.50;;;3.10;99.90;;;;;;5072338;28;20255;-69
2021/01/07 04:46:35;;;;;;;27.95;14.98;;;3.10;99.90;;;;;;5072434;28;20251;-69
2021/01/07 04:49:01;;;;;;;27.33;13.73;;;3.00;99.90;;;;;;5072295;28;20286;-68
2021/01/07 04:51:27;;;;;;;26.02;14.30;;;3.00;99.90;;;;;;5072488;28;20173;-69
2021/01/07 04:53:52;;;;;;;29.10;15.27;;;2.90;99.90;;;;;;5072420;28;20244;-69
2021/01/07 04:56:18;;;;;;;26.47;15.80;;;3.20;99.90;;;;;;5072000;28;20168;-69
2021/01/07 04:58:43;;;;;;;22.60;13.60;;;3.00;99.90;;;;;;5072144;28;20192;-69
2021/01/07 05:01:09;;;;;;;29.73;15.73;;;3.30;99.90;;;;;;5072094;28;20164;-69
2021/01/07 05:03:35;;;;;;;25.43;14.37;;;3.20;99.90;;;;;;5072545;28;20168;-69
2021/01/07 05:06:01;;;;;;;27.07;13.23;;;3.20;99.90;;;;;;5073754;28;20168;-68
2021/01/07 05:08:27;;;;;;;25.87;13.73;;;3.30;99.90;;;;;;5076097;28;20172;-69
2021/01/07 05:10:53;;;;;;;32.08;14.45;;;3.10;99.90;;;;;;5076080;28;20175;-68
2021/01/07 05:13:21;;;;;;;29.63;16.38;;;3.40;99.90;;;;;;5075811;28;20194;-68
2021/01/07 05:15:47;;;;;;;29.15;16.05;;;3.40;99.90;;;;;;5075680;28;20180;-68
2021/01/07 05:18:13;;;;;;;26.27;14.87;;;3.20;99.90;;;;;;5075518;28;20653;-68
2021/01/07 05:20:39;;;;;;;27.83;16.00;;;3.30;99.90;;;;;;5075451;28;20488;-68
2021/01/07 05:23:06;;;;;;;30.40;15.90;;;3.60;99.90;;;;;;5075278;28;20179;-68
2021/01/07 05:25:32;;;;;;;27.17;15.32;;;3.60;99.90;;;;;;5075109;28;20690;-68
2021/01/07 05:28:01;;;;;;;29.20;15.03;;;3.60;99.70;;;;;;5075247;28;20172;-68
2021/01/07 05:30:28;;;;;;;27.23;14.10;;;3.50;99.90;;;;;;5075357;28;20919;-68
2021/01/07 05:33:03;;;;;;;22.30;14.80;;;3.70;99.90;;;;;;5075081;28;20637;-68
2021/01/07 05:35:29;;;;;;;22.98;14.27;;;3.40;99.90;;;;;;5075188;28;20167;-68
2021/01/07 05:37:58;;;;;;;24.50;14.50;;;3.60;99.90;;;;;;5075478;28;20632;-68
2021/01/07 05:40:24;;;;;;;32.88;17.02;;;3.30;99.90;;;;;;5073698;28;20196;-68
2021/01/07 05:42:50;;;;;;;35.35;18.33;;;3.40;99.90;;;;;;5075020;28;20168;-68
2021/01/07 05:45:17;;;;;;;32.10;18.60;;;3.30;99.90;;;;;;5075058;28;20168;-68
2021/01/07 05:47:45;;;;;;;28.45;16.40;;;3.50;99.90;;;;;;5074891;28;20385;-68
2021/01/07 05:50:12;;;;;;;28.83;16.58;;;3.70;99.90;;;;;;5075141;28;20294;-68
2021/01/07 05:52:43;;;;;;;26.45;15.80;;;3.40;99.90;;;;;;5074802;28;20164;-67
2021/01/07 05:55:14;;;;;;;29.75;16.17;;;3.20;99.90;;;;;;5075051;28;20547;-67
2021/01/07 05:57:41;;;;;;;34.08;16.73;;;3.30;99.90;;;;;;5074822;28;20621;-67
2021/01/07 06:00:14;;;;;;;33.28;17.58;;;3.60;99.90;;;;;;5074705;28;20216;-68
2021/01/07 06:02:41;;;;;;;29.77;16.60;;;3.50;99.90;;;;;;5074790;28;20156;-70
2021/01/07 06:05:12;;;;;;;39.05;18.05;;;3.30;99.90;;;;;;5074524;28;20179;-67
2021/01/07 06:07:38;;;;;;;31.35;18.38;;;3.50;99.90;;;;;;5074934;28;20558;-68
2021/01/07 06:10:06;;;;;;;27.75;16.33;;;3.40;99.90;;;;;;5074799;28;20202;-68
2021/01/07 06:12:32;;;;;;;30.63;18.55;;;3.10;99.90;;;;;;5074332;28;20165;-68
2021/01/07 06:15:19;;;;;;;31.17;18.42;;;3.00;99.90;;;;;;5074643;28;20541;-67
2021/01/07 06:17:46;;;;;;;33.63;18.20;;;3.10;99.90;;;;;;5072949;28;20239;-68
2021/01/07 06:20:19;;;;;;;34.42;18.38;;;3.10;99.90;;;;;;5074155;28;20191;-68
2021/01/07 06:22:53;;;;;;;33.78;19.15;;;3.20;1.00;;;;;;5074361;28;20172;-68
2021/01/07 06:25:21;;;;;;;36.17;18.50;;;3.30;99.90;;;;;;5074919;28;20552;-66
2021/01/07 06:27:48;;;;;;;30.80;16.85;;;3.40;99.90;;;;;;5074129;28;20161;-68
2021/01/07 06:30:16;;;;;;;32.05;18.45;;;3.10;99.90;;;;;;5074047;28;20240;-68
2021/01/07 06:32:44;;;;;;;26.95;16.25;;;3.00;1.00;;;;;;5074203;28;20172;-68
2021/01/07 06:35:15;;;;;;;31.25;18.00;;;2.80;99.90;;;;;;5074200;28;20217;-67
2021/01/07 06:37:46;;;;;;;28.88;15.73;;;2.70;1.00;;;;;;5073922;28;20668;-68
2021/01/07 06:40:13;;;;;;;31.95;17.90;;;2.80;1.00;;;;;;5073883;28;20199;-67
2021/01/07 06:42:40;;;;;;;31.85;17.35;;;2.80;1.00;;;;;;5073822;28;20641;-68
2021/01/07 06:45:11;;;;;;;38.13;19.70;;;2.40;99.90;;;;;;5073444;28;20168;-68
2021/01/07 06:47:38;;;;;;;30.42;18.10;;;2.70;99.90;;;;;;5073975;28;20187;-68
2021/01/07 06:50:05;;;;;;;32.17;19.23;;;3.00;99.90;;;;;;5073431;28;20608;-68
2021/01/07 06:52:48;;;;;;;29.52;16.92;;;3.20;1.00;;;;;;5073835;28;20180;-68
2021/01/07 06:55:18;;;;;;;34.08;17.80;;;3.10;1.00;;;;;;5074094;28;20518;-68
2021/01/07 06:57:48;;;;;;;34.63;19.98;;;2.90;1.00;;;;;;5074656;28;20236;-68
2021/01/07 07:00:16;;;;;;;34.22;18.10;;;2.90;99.90;;;;;;5073531;28;20285;-68
2021/01/07 07:02:59;;;;;;;30.13;17.50;;;3.10;99.90;;;;;;5073052;28;20172;-68
2021/01/07 07:05:29;;;;;;;32.22;18.75;;;3.20;99.90;;;;;;5073233;28;20668;-68
2021/01/07 07:08:11;;;;;;;34.28;18.83;;;3.10;12.60;;;;;;5073194;28;20179;-69
2021/01/07 07:10:37;;;;;;;29.90;18.15;;;3.10;1.00;;;;;;5073480;28;20655;-69
2021/01/07 07:13:16;;;;;;;35.13;19.80;;;3.00;1.00;;;;;;5073132;28;20176;-68
2021/01/07 07:15:42;;;;;;;39.35;19.73;;;2.90;44.00;;;;;;5073040;28;20203;-69
2021/01/07 07:18:08;;;;;;;34.95;18.38;;;2.70;99.90;;;;;;5071529;28;20687;-69
2021/01/07 07:20:45;;;;;;;37.47;18.98;;;2.90;91.90;;;;;;5072798;28;20418;-69
2021/01/07 07:23:20;;;;;;;39.90;20.60;;;3.30;99.90;;;;;;5073304;28;20160;-69
2021/01/07 07:25:52;;;;;;;41.63;20.02;;;3.10;1.00;;;;;;5073229;28;20148;-68
2021/01/07 07:28:20;;;;;;;37.08;19.77;;;3.10;53.30;;;;;;5073047;28;20513;-69
2021/01/07 07:30:47;;;;;;;35.05;19.05;;;3.30;1.00;;;;;;5072753;28;20214;-68
2021/01/07 07:33:31;;;;;;;31.52;18.30;;;3.00;1.00;;;;;;5072483;28;20171;-68
2021/01/07 07:35:57;;;;;;;35.08;18.63;;;3.10;1.00;;;;;;5073010;28;20164;-68
2021/01/07 07:38:28;;;;;;;33.88;20.40;;;3.30;1.00;;;;;;5072655;28;20314;-67
2021/01/07 07:41:09;;;;;;;39.55;19.98;;;3.00;1.00;;;;;;5072885;28;20160;-68
2021/01/07 07:43:39;;;;;;;36.38;20.63;;;2.90;1.00;;;;;;5072866;28;20217;-68
2021/01/07 07:46:07;;;;;;;35.90;18.98;;;2.80;99.90;;;;;;5072726;28;20168;-68
2021/01/07 07:48:35;;;;;;;34.10;18.48;;;2.70;1.00;;;;;;5072242;28;20274;-68
2021/01/07 07:51:08;;;;;;;35.97;20.45;;;3.00;99.90;;;;;;5071241;28;20178;-68
2021/01/07 07:53:34;;;;;;;40.05;20.02;;;3.00;9.80;;;;;;5073022;28;20156;-70
2021/01/07 07:55:59;;;;;;;33.77;20.33;;;3.00;1.00;;;;;;5072624;28;20174;-68
2021/01/07 07:58:26;;;;;;;38.67;19.97;;;3.00;99.90;;;;;;5072497;28;20457;-67
2021/01/07 08:00:55;;;;;;;56.10;24.42;;;3.10;99.90;;;;;;5072706;28;20625;-67
2021/01/07 08:03:31;;;;;;;38.90;21.65;;;3.00;99.90;;;;;;5072887;28;20289;-69
2021/01/07 08:05:59;;;;;;;39.80;17.73;;;3.00;99.90;;;;;;5072785;28;20175;-69
2021/01/07 08:08:25;;;;;;;35.03;18.27;;;3.20;1.00;;;;;;5072577;28;20271;-69
2021/01/07 08:10:52;;;;;;;31.42;18.45;;;3.00;44.20;;;;;;5072379;28;20196;-69
2021/01/07 08:13:25;;;;;;;31.95;18.45;;;3.00;99.90;;;;;;5072486;28;20168;-67
2021/01/07 08:15:52;;;;;;;36.20;19.20;;;3.10;1.00;;;;;;5072467;28;20569;-68
2021/01/07 08:18:26;;;;;;;32.50;19.15;;;2.90;1.00;;;;;;5072739;28;20204;-68
2021/01/07 08:20:53;;;;;;;36.20;19.52;;;3.20;1.00;;;;;;5072690;28;20679;-67
2021/01/07 08:23:21;;;;;;;29.38;18.05;;;3.00;1.00;;;;;;5072804;28;20172;-68
2021/01/07 08:25:48;;;;;;;32.97;17.17;;;3.30;21.10;;;;;;5072569;28;20528;-68
2021/01/07 08:28:31;;;;;;;28.50;17.27;;;3.30;1.00;;;;;;5072743;28;20172;-68
2021/01/07 08:31:14;;;;;;;31.25;16.98;;;3.10;1.00;;;;;;5072330;28;20305;-69
2021/01/07 08:33:40;;;;;;;25.58;16.08;;;2.90;1.00;;;;;;5072393;28;20621;-68
2021/01/07 08:36:13;;;;;;;34.43;17.87;;;3.40;99.90;;;;;;5072638;28;20179;-68
2021/01/07 08:38:40;;;;;;;28.23;17.17;;;3.20;1.00;;;;;;5072625;28;20432;-68
2021/01/07 08:41:20;;;;;;;29.50;17.00;;;3.10;1.00;;;;;;5074750;28;20172;-67
2021/01/07 08:43:47;;;;;;;34.28;20.58;;;3.00;19.00;;;;;;5076562;28;20166;-68
2021/01/07 08:46:16;;;;;;;30.38;19.55;;;3.00;1.00;;;;;;5076560;28;20164;-69
2021/01/07 08:48:42;;;;;;;36.50;19.75;;;3.40;54.90;;;;;;5075996;28;20232;-68
2021/01/07 08:51:18;;;;;;;31.80;19.25;;;3.60;1.00;;;;;;5075609;28;20180;-67
2021/01/07 08:53:55;;;;;;;35.70;18.35;;;3.20;1.00;;;;;;5076030;28;20194;-68
2021/01/07 08:56:32;;;;;;;30.63;17.90;;;3.20;1.00;;;;;;5075840;28;20217;-68
2021/01/07 08:59:17;;;;;;;34.22;20.77;;;3.40;1.00;;;;;;5075547;28;20209;-67
2021/01/07 09:01:47;;;;;;;32.80;19.83;;;3.50;1.00;;;;;;5075837;28;20660;-68
2021/01/07 09:04:39;;;;;;;36.10;18.88;;;3.40;99.90;;;;;;5075921;28;20168;-68
2021/01/07 09:07:12;;;;;;;32.90;18.75;;;3.40;23.50;;;;;;5075652;28;20571;-68
2021/01/07 09:09:51;;;;;;;50.95;19.73;;;3.80;1.00;;;;;;5075715;28;20185;-68
2021/01/07 09:12:19;;;;;;;33.47;18.02;;;3.70;99.90;;;;;;5076071;28;20160;-68
2021/01/07 09:14:49;;;;;;;43.58;18.80;;;3.60;99.90;;;;;;5074281;28;20264;-68
2021/01/07 09:17:16;;;;;;;35.17;18.38;;;3.50;1.00;;;;;;5075144;28;20200;-67
2021/01/07 09:19:43;;;;;;;31.67;16.75;;;3.20;1.00;;;;;;5075598;28;20180;-68
2021/01/07 09:22:09;;;;;;;31.80;17.92;;;3.00;1.00;;;;;;5075864;28;20176;-69
2021/01/07 09:24:36;;;;;;;33.58;17.90;;;3.00;48.60;;;;;;5075329;28;20259;-68
2021/01/07 09:27:09;;;;;;;27.88;18.15;;;2.80;68.10;;;;;;5075122;28;20528;-68
2021/01/07 09:29:35;;;;;;;40.78;22.17;;;2.90;1.00;;;;;;5074840;28;20215;-68
2021/01/07 09:32:01;;;;;;;34.38;18.45;;;2.80;50.50;;;;;;5075478;28;20524;-67
2021/01/07 09:34:27;;;;;;;36.67;20.20;;;2.90;99.90;;;;;;5075058;28;20168;-68
2021/01/07 09:37:01;;;;;;;37.10;18.87;;;3.10;99.90;;;;;;5074924;28;20172;-68
2021/01/07 09:39:27;;;;;;;37.60;20.13;;;3.00;99.90;;;;;;5074912;28;20291;-68
2021/01/07 09:41:52;;;;;;;29.40;18.13;;;3.10;1.00;;;;;;5075020;28;20195;-67
2021/01/07 09:44:18;;;;;;;36.03;19.67;;;2.80;1.00;;;;;;5074891;28;20251;-68
2021/01/07 09:46:43;;;;;;;33.77;19.33;;;2.90;99.90;;;;;;5074881;28;20164;-68
2021/01/07 09:49:09;;;;;;;46.20;23.13;;;3.30;1.00;;;;;;5074692;28;20200;-69
2021/01/07 09:51:35;;;;;;;33.60;19.30;;;3.40;1.00;;;;;;5075586;28;20168;-69
2021/01/07 09:54:00;;;;;;;59.83;23.03;;;3.40;1.00;;;;;;5075274;28;20169;-67
2021/01/07 09:56:26;;;;;;;33.30;19.00;;;3.40;1.00;;;;;;5074841;28;20248;-68
2021/01/07 09:58:51;;;;;;;36.13;20.17;;;3.40;1.00;;;;;;5074751;28;20231;-67
2021/01/07 10:01:18;;;;;;;33.60;20.23;;;3.00;1.00;;;;;;5074820;28;20160;-68
2021/01/07 10:03:44;;;;;;;40.78;20.48;;;3.10;9.90;;;;;;5075007;28;20172;-68
2021/01/07 10:06:09;;;;;;;33.47;18.83;;;3.40;99.90;;;;;;5075027;28;20168;-68
2021/01/07 10:08:35;;;;;;;37.77;19.00;;;3.10;99.90;;;;;;5073208;28;20661;-68
2021/01/07 10:11:01;;;;;;;33.73;18.63;;;3.10;99.90;;;;;;5074542;28;20175;-68
2021/01/07 10:13:26;;;;;;;37.13;18.40;;;3.60;1.00;;;;;;5074408;28;20293;-68
2021/01/07 10:15:52;;;;;;;29.27;17.73;;;3.30;99.90;;;;;;5074465;28;20211;-68
2021/01/07 10:18:18;;;;;;;32.33;18.47;;;3.50;1.00;;;;;;5074338;28;20572;-68
2021/01/07 10:20:43;;;;;;;31.92;16.33;;;3.50;99.90;;;;;;5074069;28;20180;-68
2021/01/07 10:23:11;;;;;;;24.50;14.37;;;3.30;1.00;;;;;;5074102;28;20222;-68
2021/01/07 10:25:37;;;;;;;27.77;15.57;;;3.10;99.90;;;;;;5073171;28;20160;-68
2021/01/07 10:28:02;;;;;;;25.60;14.33;;;3.30;99.90;;;;;;5073505;28;20657;-68
2021/01/07 10:30:28;;;;;;;21.93;12.17;;;3.60;1.00;;;;;;5074268;28;20492;-68
2021/01/07 10:32:55;;;;;;;21.15;12.40;;;3.40;99.90;;;;;;5074325;28;20402;-69
2021/01/07 10:35:22;;;;;;;28.17;13.10;;;3.30;99.90;;;;;;5073977;28;20533;-69
2021/01/07 10:37:58;;;;;;;24.45;12.57;;;3.50;99.90;;;;;;5073779;28;20207;-69
2021/01/07 10:40:27;;;;;;;24.02;14.75;;;3.30;1.00;;;;;;5074493;28;20188;-69
2021/01/07 10:42:53;;;;;;;20.38;11.80;;;3.10;1.00;;;;;;5074212;28;20207;-67
2021/01/07 10:45:18;;;;;;;18.57;11.73;;;3.20;99.90;;;;;;5073959;28;20174;-68
2021/01/07 10:47:47;;;;;;;15.77;9.80;;;3.20;99.90;;;;;;5074157;28;20251;-68
2021/01/07 10:50:17;;;;;;;14.68;8.85;;;3.20;1.00;;;;;;5073988;28;20188;-69
2021/01/07 10:53:14;;;;;;;17.50;11.77;;;3.40;1.00;;;;;;5073813;28;20263;-68
2021/01/07 10:55:57;;;;;;;14.85;10.57;;;3.30;1.00;;;;;;5037870;28;20545;-69
2021/01/07 10:58:32;;;;;;;21.30;13.13;;;3.40;99.90;;;;;;5074165;28;20176;-67
2021/01/07 11:01:05;;;;;;;22.00;11.40;;;3.40;1.00;;;;;;5073728;28;20202;-67
2021/01/07 11:04:17;;;;;;;19.65;11.60;;;3.50;1.00;;;;;;5073118;28;20153;-68
2021/01/07 11:07:06;;;;;;;18.27;10.95;;;3.60;1.00;;;;;;5031685;28;20175;-68
2021/01/07 11:09:36;;;;;;;17.30;11.02;;;3.60;99.90;;;;;;5073641;28;20306;-67
2021/01/07 11:12:30;;;;;;;16.00;10.18;;;3.80;1.00;;;;;;5073368;28;20164;-67
2021/01/07 11:15:05;;;;;;;16.55;10.32;;;3.50;1.00;;;;;;5071899;28;20184;-69
2021/01/07 11:17:37;;;;;;;18.25;11.10;;;3.00;99.90;;;;;;5073687;28;20244;-71
2021/01/07 11:20:06;;;;;;;20.33;12.30;;;2.80;99.90;;;;;;5073196;28;20190;-68
2021/01/07 11:22:37;;;;;;;20.55;11.30;;;3.30;99.90;;;;;;5073468;28;20640;-68
2021/01/07 11:25:03;;;;;;;18.23;11.70;;;3.40;1.00;;;;;;5073656;28;20175;-69
2021/01/07 11:27:34;;;;;;;15.60;11.60;;;3.60;1.00;;;;;;5073935;28;20187;-68
2021/01/07 11:30:03;;;;;;;19.88;11.65;;;3.30;1.00;;;;;;5072979;28;20252;-68
2021/01/07 11:32:30;;;;;;;17.80;10.43;;;3.30;99.90;;;;;;5072889;28;20537;-69
2021/01/07 11:34:59;;;;;;;15.60;9.75;;;3.60;1.00;;;;;;5073261;28;20161;-69
2021/01/07 11:37:34;;;;;;;19.98;12.32;;;3.30;1.00;;;;;;5073107;28;20741;-68
2021/01/07 11:40:06;;;;;;;18.83;10.82;;;3.50;1.00;;;;;;5072955;28;20202;-68
2021/01/07 11:42:58;;;;;;;17.33;9.57;;;3.80;59.20;;;;;;5073400;28;20217;-68
2021/01/07 11:45:34;;;;;;;28.42;11.95;;;3.30;1.00;;;;;;5073316;28;20525;-69
2021/01/07 11:48:06;;;;;;;14.70;9.00;;;3.40;1.00;;;;;;5072705;28;20328;-68
2021/01/07 11:50:37;;;;;;;17.20;10.35;;;3.30;1.00;;;;;;5071958;28;20192;-69
2021/01/07 11:53:05;;;;;;;13.95;10.13;;;3.50;99.90;;;;;;5072023;28;20510;-68
2021/01/07 11:55:34;;;;;;;14.93;9.98;;;3.50;4.30;;;;;;5071981;28;20175;-69
2021/01/07 11:58:00;;;;;;;13.65;8.35;;;3.30;1.00;;;;;;5071557;28;20195;-68
2021/01/07 12:00:26;;;;;;;18.03;10.63;;;3.30;1.00;;;;;;5071918;28;20194;-69
2021/01/07 12:02:54;;;;;;;14.10;8.50;;;3.20;99.90;;;;;;5071738;28;20230;-68
2021/01/07 12:05:22;;;;;;;12.60;8.40;;;3.30;1.70;;;;;;5072006;28;20168;-68
2021/01/07 12:08:06;;;;;;;15.52;9.93;;;3.30;99.90;;;;;;5071824;28;20164;-68
2021/01/07 12:10:36;;;;;;;13.30;8.48;;;3.30;1.00;;;;;;5071978;28;20192;-67
2021/01/07 12:13:14;;;;;;;23.80;12.18;;;3.30;1.00;;;;;;5071242;28;20176;-67
2021/01/07 12:15:42;;;;;;;19.30;10.35;;;3.60;99.90;;;;;;5072010;28;20626;-68
2021/01/07 12:18:11;;;;;;;11.95;8.32;;;3.70;1.00;;;;;;5075376;28;20195;-69
2021/01/07 12:20:36;;;;;;;14.02;9.50;;;3.40;69.70;;;;;;5074731;28;20241;-68
2021/01/07 12:23:06;;;;;;;15.77;10.80;;;3.20;99.90;;;;;;5074085;28;20172;-68
2021/01/07 12:25:32;;;;;;;17.38;9.80;;;3.30;1.00;;;;;;5075571;28;20385;-68
2021/01/07 12:27:58;;;;;;;16.58;10.90;;;3.20;99.90;;;;;;5075326;28;20179;-67
2021/01/07 12:30:24;;;;;;;18.50;9.77;;;3.50;1.00;;;;;;5075159;28;20277;-67
2021/01/07 12:32:59;;;;;;;15.70;10.05;;;3.10;99.90;;;;;;5075208;28;20176;-68
2021/01/07 12:35:32;;;;;;;14.50;10.25;;;3.50;1.00;;;;;;5074908;28;20677;-68
2021/01/07 12:38:32;;;;;;;17.35;10.32;;;3.70;99.90;;;;;;5074771;28;20241;-68
2021/01/07 12:41:05;;;;;;;17.70;11.18;;;3.90;1.00;;;;;;5075064;28;20213;-68
2021/01/07 12:43:34;;;;;;;13.75;9.13;;;3.40;99.90;;;;;;5075166;28;20606;-68
2021/01/07 12:46:02;;;;;;;16.08;10.68;;;3.70;99.90;;;;;;5074929;28;20637;-67
2021/01/07 12:48:30;;;;;;;15.55;10.45;;;3.80;1.00;;;;;;5053746;28;604312;-68